createdAt,value
2018-02-27T00:02:13.450Z,-2.94
2018-02-27T00:04:41.819Z,-2.90
2018-02-27T00:07:10.161Z,-2.94
2018-02-27T00:09:38.488Z,-3.07
2018-02-27T00:12:07.417Z,-3.00
2018-02-27T00:14:35.824Z,-2.93
2018-02-27T00:17:04.129Z,-3.12
2018-02-27T00:19:32.531Z,-3.11
2018-02-27T00:22:00.905Z,-3.18
2018-02-27T00:24:29.248Z,-3.24
2018-02-27T00:26:57.601Z,-3.20
2018-02-27T00:29:26.094Z,-3.36
2018-02-27T00:31:54.453Z,-3.34
2018-02-27T00:34:23.502Z,-3.59
2018-02-27T00:36:51.817Z,-3.62
2018-02-27T00:39:20.230Z,-3.59
2018-02-27T00:41:48.572Z,-3.68
2018-02-27T00:44:16.916Z,-3.73
2018-02-27T00:46:45.305Z,-3.68
2018-02-27T00:49:13.671Z,-3.78
2018-02-27T00:51:42.014Z,-3.73
2018-02-27T00:54:10.569Z,-3.74
2018-02-27T00:56:39.200Z,-3.76
2018-02-27T00:59:07.622Z,-3.79
2018-02-27T01:01:36.038Z,-3.95
2018-02-27T01:04:04.391Z,-3.83
2018-02-27T01:06:32.767Z,-3.70
2018-02-27T01:09:01.144Z,-3.81
2018-02-27T01:11:29.550Z,-3.80
2018-02-27T01:13:57.890Z,-3.87
2018-02-27T01:16:26.234Z,-3.73
2018-02-27T01:18:54.749Z,-3.70
2018-02-27T01:21:23.126Z,-3.81
2018-02-27T01:23:51.463Z,-4.01
2018-02-27T01:26:19.818Z,-3.92
2018-02-27T01:28:48.122Z,-3.81
2018-02-27T01:31:16.471Z,-3.95
2018-02-27T01:33:45.600Z,-3.91
2018-02-27T01:36:13.949Z,-3.89
2018-02-27T01:38:42.297Z,-3.96
2018-02-27T01:41:11.111Z,-4.01
2018-02-27T01:43:40.216Z,-4.02
2018-02-27T01:46:08.538Z,-4.03
2018-02-27T01:48:36.902Z,-4.14
2018-02-27T01:51:14.973Z,-4.16
2018-02-27T01:53:44.108Z,-4.20
2018-02-27T01:56:12.445Z,-4.03
2018-02-27T01:58:41.551Z,-4.09
2018-02-27T02:01:10.231Z,-4.01
2018-02-27T02:03:39.322Z,-3.81
2018-02-27T02:06:07.629Z,-3.73
2018-02-27T02:08:35.960Z,-3.67
2018-02-27T02:11:04.304Z,-3.53
2018-02-27T02:13:32.636Z,-3.54
2018-02-27T02:16:01.764Z,-3.46
2018-02-27T02:18:30.552Z,-3.40
2018-02-27T02:20:58.902Z,-3.43
2018-02-27T02:23:28.083Z,-3.21
2018-02-27T02:25:56.398Z,-3.22
2018-02-27T02:28:24.727Z,-3.15
2018-02-27T02:30:53.061Z,-3.28
2018-02-27T02:33:21.464Z,-3.38
2018-02-27T02:35:49.785Z,-3.16
2018-02-27T02:38:18.946Z,-3.12
2018-02-27T02:40:47.284Z,-3.00
2018-02-27T02:43:15.593Z,-3.09
2018-02-27T02:45:44.283Z,-2.92
2018-02-27T02:48:12.608Z,-3.07
2018-02-27T02:50:41.683Z,-3.07
2018-02-27T02:53:10.009Z,-2.83
2018-02-27T02:55:38.313Z,-2.76
2018-02-27T02:58:06.621Z,-2.70
2018-02-27T03:00:35.706Z,-2.48
2018-02-27T03:03:04.012Z,-2.24
2018-02-27T03:05:32.346Z,-2.49
2018-02-27T03:08:01.071Z,-2.51
2018-02-27T03:10:30.139Z,-2.56
2018-02-27T03:12:58.486Z,-2.72
2018-02-27T03:15:26.807Z,-2.71
2018-02-27T03:17:55.170Z,-2.58
2018-02-27T03:20:23.480Z,-2.67
2018-02-27T03:22:52.590Z,-2.44
2018-02-27T03:25:21.260Z,-2.70
2018-02-27T03:27:50.382Z,-2.82
2018-02-27T03:30:19.021Z,-2.80
2018-02-27T03:32:48.116Z,-2.96
2018-02-27T03:35:16.409Z,-2.77
2018-02-27T03:37:46.008Z,-2.65
2018-02-27T03:40:14.540Z,-2.66
2018-02-27T03:42:42.868Z,-2.57
2018-02-27T03:45:11.242Z,-2.56
2018-02-27T03:47:39.570Z,-2.63
2018-02-27T03:50:07.889Z,-2.46
2018-02-27T03:52:36.380Z,-2.69
2018-02-27T03:55:04.681Z,-2.68
2018-02-27T03:57:33.775Z,-2.72
2018-02-27T04:00:03.002Z,-2.66
2018-02-27T04:02:31.307Z,-2.69
2018-02-27T04:04:59.601Z,-2.66
2018-02-27T04:07:27.930Z,-2.54
2018-02-27T04:09:56.245Z,-2.52
2018-02-27T04:12:24.547Z,-2.51
2018-02-27T04:14:53.098Z,-2.61
2018-02-27T04:17:21.431Z,-2.52
2018-02-27T04:19:50.780Z,-2.44
2018-02-27T04:22:19.141Z,-2.18
2018-02-27T04:24:47.459Z,-2.14
2018-02-27T04:27:15.832Z,-2.28
2018-02-27T04:29:44.288Z,-2.24
2018-02-27T04:32:12.701Z,-2.23
2018-02-27T04:34:41.189Z,-2.13
2018-02-27T04:37:10.690Z,-2.46
2018-02-27T04:39:39.168Z,-2.62
2018-02-27T04:42:07.557Z,-2.74
2018-02-27T04:44:35.931Z,-2.85
2018-02-27T04:47:04.311Z,-2.91
2018-02-27T04:49:32.689Z,-2.82
2018-02-27T04:52:01.122Z,-2.74
2018-02-27T04:54:29.518Z,-2.87
2018-02-27T04:56:58.025Z,-2.55
2018-02-27T04:59:26.818Z,-2.38
2018-02-27T05:01:55.193Z,-2.08
2018-02-27T05:04:23.581Z,-2.10
2018-02-27T05:06:51.992Z,-2.22
2018-02-27T05:09:21.199Z,-2.35
2018-02-27T05:11:49.601Z,-2.27
2018-02-27T05:14:17.980Z,-2.33
2018-02-27T05:16:46.395Z,-2.23
2018-02-27T05:19:14.716Z,-2.06
2018-02-27T05:21:44.859Z,-2.20
2018-02-27T05:24:13.288Z,-2.29
2018-02-27T05:26:41.652Z,-2.46
2018-02-27T05:29:10.140Z,-2.31
2018-02-27T05:31:38.625Z,-2.22
2018-02-27T05:34:06.931Z,-2.20
2018-02-27T05:36:35.481Z,-2.10
2018-02-27T05:39:03.962Z,-2.21
2018-02-27T05:41:32.338Z,-2.07
2018-02-27T05:44:01.157Z,-2.27
2018-02-27T05:46:30.320Z,-2.23
2018-02-27T05:48:58.754Z,-2.06
2018-02-27T05:51:27.194Z,-1.98
2018-02-27T05:53:55.584Z,-1.94
2018-02-27T05:56:24.052Z,-2.14
2018-02-27T05:58:52.601Z,-1.98
2018-02-27T06:01:20.985Z,-2.06
2018-02-27T06:03:49.394Z,-2.13
2018-02-27T06:06:18.132Z,-2.31
2018-02-27T06:08:46.496Z,-2.13
2018-02-27T06:11:15.658Z,-2.02
2018-02-27T06:13:44.935Z,-1.95
2018-02-27T06:16:13.449Z,-2.01
2018-02-27T06:18:41.899Z,-2.03
2018-02-27T06:21:10.404Z,-2.09
2018-02-27T06:23:38.991Z,-2.10
2018-02-27T06:26:07.306Z,-2.04
2018-02-27T06:28:35.807Z,-1.97
2018-02-27T06:31:04.201Z,-2.03
2018-02-27T06:33:32.546Z,-1.72
2018-02-27T06:36:00.898Z,-1.81
2018-02-27T06:38:29.232Z,-1.74
2018-02-27T06:40:57.537Z,-1.74
2018-02-27T06:43:25.880Z,-1.38
2018-02-27T06:45:54.191Z,-1.28
2018-02-27T06:48:22.520Z,-0.57
2018-02-27T06:50:52.108Z,0.48
2018-02-27T06:53:20.415Z,1.20
2018-02-27T06:55:48.729Z,2.15
2018-02-27T06:58:17.061Z,2.84
2018-02-27T07:00:45.374Z,3.58
2018-02-27T07:03:13.688Z,4.23
2018-02-27T07:05:42.007Z,3.64
2018-02-27T07:08:10.313Z,3.73
2018-02-27T07:10:38.626Z,3.86
2018-02-27T07:13:08.037Z,4.60
2018-02-27T07:15:37.129Z,5.69
2018-02-27T07:18:05.447Z,6.64
2018-02-27T07:20:33.819Z,7.19
2018-02-27T07:23:02.123Z,8.07
2018-02-27T07:25:30.466Z,8.91
2018-02-27T07:27:58.823Z,9.52
2018-02-27T07:30:27.912Z,9.10
2018-02-27T07:32:57.007Z,8.44
2018-02-27T07:35:26.270Z,7.93
2018-02-27T07:37:54.627Z,8.58
2018-02-27T07:40:22.956Z,8.72
2018-02-27T07:42:51.318Z,9.61
2018-02-27T07:45:19.628Z,9.71
2018-02-27T07:47:47.960Z,10.26
2018-02-27T07:50:16.317Z,11.25
2018-02-27T07:52:44.643Z,11.88
2018-02-27T07:55:12.936Z,11.86
2018-02-27T07:57:42.212Z,12.32
2018-02-27T08:00:10.519Z,12.84
2018-02-27T08:02:39.601Z,13.14
2018-02-27T08:05:07.974Z,13.40
2018-02-27T08:07:36.299Z,12.83
2018-02-27T08:10:04.650Z,10.32
2018-02-27T08:12:32.985Z,8.32
2018-02-27T08:15:01.312Z,7.17
2018-02-27T08:17:29.613Z,7.52
2018-02-27T08:19:59.279Z,6.68
2018-02-27T08:22:27.588Z,6.88
2018-02-27T08:24:55.917Z,7.63
2018-02-27T08:27:24.279Z,8.36
2018-02-27T08:29:52.600Z,8.80
2018-02-27T08:32:20.951Z,10.13
2018-02-27T08:34:49.315Z,11.01
2018-02-27T08:37:17.629Z,12.23
2018-02-27T08:39:45.945Z,14.14
2018-02-27T08:42:14.379Z,13.05
2018-02-27T08:44:42.699Z,12.82
2018-02-27T08:47:11.052Z,10.19
2018-02-27T08:49:40.164Z,9.00
2018-02-27T08:52:09.256Z,10.28
2018-02-27T08:54:38.361Z,12.00
2018-02-27T08:57:07.480Z,13.67
2018-02-27T08:59:35.800Z,14.12
2018-02-27T09:02:04.121Z,16.05
2018-02-27T09:04:32.758Z,16.18
2018-02-27T09:07:01.077Z,15.13
2018-02-27T09:09:29.436Z,12.67
2018-02-27T09:11:58.537Z,10.37
2018-02-27T09:14:27.637Z,9.37
2018-02-27T09:16:56.706Z,8.82
2018-02-27T09:19:25.046Z,7.23
2018-02-27T09:21:53.364Z,6.36
2018-02-27T09:24:21.727Z,6.05
2018-02-27T09:26:50.549Z,5.70
2018-02-27T09:29:19.637Z,5.84
2018-02-27T09:31:47.955Z,5.28
2018-02-27T09:34:16.318Z,5.21
2018-02-27T09:36:45.388Z,5.65
2018-02-27T09:39:13.683Z,6.35
2018-02-27T09:41:42.792Z,6.17
2018-02-27T09:44:11.126Z,5.49
2018-02-27T09:46:39.461Z,4.50
2018-02-27T09:49:08.135Z,4.22
2018-02-27T09:51:36.416Z,4.17
2018-02-27T09:54:05.631Z,4.94
2018-02-27T09:56:33.978Z,6.17
2018-02-27T09:59:02.279Z,10.17
2018-02-27T10:01:30.576Z,12.77
2018-02-27T10:03:58.936Z,12.66
2018-02-27T10:06:27.230Z,11.61
2018-02-27T10:08:55.573Z,12.11
2018-02-27T10:11:24.878Z,9.77
2018-02-27T10:13:53.184Z,8.80
2018-02-27T10:16:21.530Z,9.38
2018-02-27T10:18:50.613Z,9.81
2018-02-27T10:21:19.678Z,9.83
2018-02-27T10:23:48.565Z,8.99
2018-02-27T10:26:16.904Z,8.41
2018-02-27T10:28:45.233Z,8.03
2018-02-27T10:31:13.546Z,7.86
2018-02-27T10:33:43.237Z,8.51
2018-02-27T10:36:11.575Z,8.15
2018-02-27T10:38:39.887Z,9.39
2018-02-27T10:41:08.223Z,9.10
2018-02-27T10:43:36.576Z,8.34
2018-02-27T10:46:04.878Z,7.59
2018-02-27T10:48:33.213Z,6.37
2018-02-27T10:51:02.304Z,6.25
2018-02-27T10:53:31.391Z,5.73
2018-02-27T10:56:01.194Z,5.84
2018-02-27T10:58:29.512Z,6.43
2018-02-27T11:00:57.818Z,7.06
2018-02-27T11:03:26.279Z,9.06
2018-02-27T11:05:54.620Z,8.68
2018-02-27T11:08:22.923Z,10.59
2018-02-27T11:10:52.029Z,10.28
2018-02-27T11:13:20.434Z,8.66
2018-02-27T11:15:48.739Z,6.94
2018-02-27T11:18:17.389Z,5.67
2018-02-27T11:20:45.717Z,4.57
2018-02-27T11:23:14.067Z,4.27
2018-02-27T11:25:42.401Z,3.99
2018-02-27T11:28:10.717Z,3.78
2018-02-27T11:30:39.014Z,3.99
2018-02-27T11:33:07.346Z,4.26
2018-02-27T11:35:36.412Z,4.00
2018-02-27T11:38:04.711Z,4.64
2018-02-27T11:40:34.096Z,4.60
2018-02-27T11:43:02.432Z,3.91
2018-02-27T11:45:30.738Z,3.96
2018-02-27T11:47:59.084Z,3.60
2018-02-27T11:50:27.672Z,3.48
2018-02-27T11:52:56.015Z,3.14
2018-02-27T11:55:25.124Z,2.96
2018-02-27T11:57:53.460Z,3.52
2018-02-27T12:00:21.766Z,3.53
2018-02-27T12:02:51.147Z,3.25
2018-02-27T12:05:20.231Z,3.08
2018-02-27T12:07:48.532Z,3.08
2018-02-27T12:10:17.627Z,3.04
2018-02-27T12:12:46.724Z,3.11
2018-02-27T12:15:15.815Z,2.93
2018-02-27T12:17:44.905Z,3.05
2018-02-27T12:20:13.271Z,3.54
2018-02-27T12:22:41.628Z,3.75
2018-02-27T12:25:11.060Z,4.45
2018-02-27T12:27:39.396Z,5.95
2018-02-27T12:30:07.908Z,6.17
2018-02-27T12:32:36.238Z,7.03
2018-02-27T12:35:04.541Z,8.73
2018-02-27T12:37:32.852Z,9.11
2018-02-27T12:40:01.209Z,12.04
2018-02-27T12:42:30.374Z,13.82
2018-02-27T12:44:58.693Z,14.79
2018-02-27T12:47:27.317Z,13.80
2018-02-27T12:49:56.437Z,14.80
2018-02-27T12:52:24.768Z,16.52
2018-02-27T12:54:53.102Z,16.39
2018-02-27T12:57:21.431Z,15.17
2018-02-27T12:59:50.530Z,14.81
2018-02-27T13:02:19.654Z,12.39
2018-02-27T13:04:47.973Z,10.74
2018-02-27T13:07:16.277Z,11.97
2018-02-27T13:09:44.980Z,10.73
2018-02-27T13:12:13.343Z,8.76
2018-02-27T13:14:41.645Z,7.69
2018-02-27T13:17:10.769Z,6.88
2018-02-27T13:19:39.065Z,6.74
2018-02-27T13:22:07.400Z,6.49
2018-02-27T13:24:35.749Z,5.96
2018-02-27T13:27:04.099Z,5.15
2018-02-27T13:29:32.430Z,4.87
2018-02-27T13:32:01.249Z,4.65
2018-02-27T13:34:29.556Z,4.48
2018-02-27T13:36:57.894Z,4.41
2018-02-27T13:39:26.233Z,4.44
2018-02-27T13:41:54.573Z,4.44
2018-02-27T13:44:22.883Z,4.21
2018-02-27T13:46:51.206Z,3.94
2018-02-27T13:49:24.844Z,4.21
2018-02-27T13:51:47.865Z,4.37
2018-02-27T13:54:16.613Z,4.07
2018-02-27T13:56:44.928Z,4.02
2018-02-27T13:59:13.229Z,3.07
2018-02-27T14:01:41.572Z,2.36
2018-02-27T14:04:09.918Z,2.21
2018-02-27T14:06:38.241Z,1.73
2018-02-27T14:09:06.548Z,1.93
2018-02-27T14:11:34.856Z,1.55
2018-02-27T14:14:03.189Z,1.66
2018-02-27T14:16:31.933Z,1.52
2018-02-27T14:19:00.236Z,1.28
2018-02-27T14:21:28.706Z,1.09
2018-02-27T14:23:57.043Z,1.39
2018-02-27T14:26:25.442Z,1.73
2018-02-27T14:28:53.720Z,1.54
2018-02-27T14:31:22.089Z,1.59
2018-02-27T14:33:50.425Z,1.55
2018-02-27T14:36:18.713Z,1.89
2018-02-27T14:38:47.435Z,2.02
2018-02-27T14:41:15.767Z,2.04
2018-02-27T14:43:44.090Z,2.41
2018-02-27T14:46:12.455Z,2.54
2018-02-27T14:48:40.803Z,2.39
2018-02-27T14:51:09.151Z,2.52
2018-02-27T14:53:38.254Z,2.72
2018-02-27T14:56:06.580Z,2.94
2018-02-27T14:58:34.862Z,3.91
2018-02-27T15:01:03.593Z,4.50
2018-02-27T15:03:32.677Z,5.31
2018-02-27T15:06:01.004Z,5.77
2018-02-27T15:08:29.350Z,5.83
2018-02-27T15:10:57.665Z,6.05
2018-02-27T15:13:26.008Z,6.42
2018-02-27T15:15:54.361Z,7.18
2018-02-27T15:18:23.457Z,7.67
2018-02-27T15:20:51.781Z,8.73
2018-02-27T15:23:20.206Z,9.63
2018-02-27T15:25:49.322Z,9.55
2018-02-27T15:28:18.412Z,9.02
2018-02-27T15:30:47.542Z,9.11
2018-02-27T15:33:15.841Z,8.60
2018-02-27T15:35:44.186Z,9.35
2018-02-27T15:38:12.551Z,9.03
2018-02-27T15:40:41.607Z,8.88
2018-02-27T15:43:09.921Z,8.42
2018-02-27T15:45:39.514Z,8.02
2018-02-27T15:48:07.896Z,7.24
2018-02-27T15:50:36.206Z,6.05
2018-02-27T15:53:04.554Z,5.35
2018-02-27T15:55:32.867Z,4.51
2018-02-27T15:58:01.178Z,3.72
2018-02-27T16:00:29.535Z,3.43
2018-02-27T16:02:57.845Z,2.92
2018-02-27T16:05:26.135Z,2.80
2018-02-27T16:07:54.794Z,2.80
2018-02-27T16:10:23.092Z,2.74
2018-02-27T16:12:51.400Z,2.36
2018-02-27T16:15:19.744Z,1.91
2018-02-27T16:17:48.064Z,1.80
2018-02-27T16:20:17.193Z,1.89
2018-02-27T16:22:45.528Z,1.71
2018-02-27T16:25:14.591Z,1.42
2018-02-27T16:27:42.918Z,1.28
2018-02-27T16:30:11.508Z,1.25
2018-02-27T16:32:39.794Z,1.03
2018-02-27T16:35:08.106Z,1.21
2018-02-27T16:37:36.475Z,1.21
2018-02-27T16:40:04.781Z,0.78
2018-02-27T16:42:33.112Z,1.10
2018-02-27T16:45:01.461Z,0.93
2018-02-27T16:47:29.792Z,0.44
2018-02-27T16:49:58.120Z,0.08
2018-02-27T16:52:26.599Z,-0.18
2018-02-27T16:54:55.668Z,-0.35
2018-02-27T16:57:23.973Z,-0.18
2018-02-27T16:59:52.317Z,-0.31
2018-02-27T17:02:20.633Z,-0.10
2018-02-27T17:04:49.735Z,-0.46
2018-02-27T17:07:18.102Z,-0.73
2018-02-27T17:09:47.205Z,-0.64
2018-02-27T17:12:16.359Z,-0.56
2018-02-27T17:14:45.105Z,-0.76
2018-02-27T17:17:13.431Z,-0.65
2018-02-27T17:22:16.342Z,-0.83
2018-02-27T17:24:44.697Z,-0.52
2018-02-27T17:27:13.168Z,-0.21
2018-02-27T17:29:41.522Z,-0.68
2018-02-27T17:32:09.841Z,-0.40
2018-02-27T17:34:38.158Z,-0.39
2018-02-27T17:37:07.465Z,-0.19
2018-02-27T17:39:36.565Z,-0.52
2018-02-27T17:42:05.681Z,-0.38
2018-02-27T17:44:34.022Z,-0.54
2018-02-27T17:47:02.357Z,-0.48
2018-02-27T17:49:30.680Z,-0.54
2018-02-27T17:51:59.818Z,-0.54
2018-02-27T17:54:28.146Z,-0.46
2018-02-27T17:56:56.459Z,-0.43
2018-02-27T17:59:24.945Z,-0.20
2018-02-27T18:01:53.263Z,-0.36
2018-02-27T18:04:21.608Z,-0.41
2018-02-27T18:06:50.034Z,-0.48
2018-02-27T18:09:18.375Z,-0.53
2018-02-27T18:11:46.698Z,-0.87
2018-02-27T18:14:15.039Z,-0.69
2018-02-27T18:16:43.402Z,-0.41
2018-02-27T18:19:11.730Z,-0.49
2018-02-27T18:21:40.445Z,-0.63
2018-02-27T18:24:09.643Z,-0.78
2018-02-27T18:26:38.755Z,-0.77
2018-02-27T18:29:07.118Z,-0.66
2018-02-27T18:31:35.497Z,-0.66
2018-02-27T18:34:03.809Z,-0.65
2018-02-27T18:36:32.157Z,-0.70
2018-02-27T18:39:00.481Z,-0.93
2018-02-27T18:41:28.821Z,-0.82
2018-02-27T18:43:57.633Z,-1.10
2018-02-27T18:46:25.781Z,-1.32
2018-02-27T18:48:55.006Z,-1.28
2018-02-27T18:51:23.339Z,-1.32
2018-02-27T18:53:51.660Z,-1.30
2018-02-27T18:56:20.014Z,-1.71
2018-02-27T18:58:49.121Z,-1.52
2018-02-27T19:01:17.462Z,-1.18
2018-02-27T19:03:46.582Z,-1.19
2018-02-27T19:06:15.983Z,-1.22
2018-02-27T19:08:44.309Z,-1.37
2018-02-27T19:11:13.382Z,-1.63
2018-02-27T19:13:41.946Z,-1.71
2018-02-27T19:16:11.040Z,-2.04
2018-02-27T19:18:40.128Z,-2.18
2018-02-27T19:21:09.267Z,-2.13
2018-02-27T19:23:37.607Z,-2.27
2018-02-27T19:26:05.945Z,-2.24
2018-02-27T19:28:34.757Z,-2.03
2018-02-27T19:31:03.084Z,-2.34
2018-02-27T19:33:31.452Z,-1.99
2018-02-27T19:35:59.806Z,-2.09
2018-02-27T19:38:28.901Z,-2.30
2018-02-27T19:40:57.248Z,-2.43
2018-02-27T19:43:25.609Z,-2.49
2018-02-27T19:45:53.937Z,-2.51
2018-02-27T19:48:22.294Z,-2.65
2018-02-27T19:50:50.709Z,-2.59
2018-02-27T19:53:19.811Z,-2.67
2018-02-27T19:55:48.194Z,-2.50
2018-02-27T19:58:16.835Z,-2.89
2018-02-27T20:00:45.188Z,-2.88
2018-02-27T20:03:13.512Z,-3.06
2018-02-27T20:05:42.653Z,-2.81
2018-02-27T20:08:10.983Z,-2.92
2018-02-27T20:10:40.113Z,-2.85
2018-02-27T20:13:08.609Z,-3.13
2018-02-27T20:15:36.954Z,-3.13
2018-02-27T20:18:12.551Z,-3.00
2018-02-27T20:20:40.880Z,-2.89
2018-02-27T20:23:14.646Z,-2.83
2018-02-27T20:25:43.005Z,-2.87
2018-02-27T20:31:13.403Z,-2.89
2018-02-27T20:33:42.585Z,-3.18
2018-02-27T20:36:10.929Z,-3.18
2018-02-27T20:38:44.852Z,-3.04
2018-02-27T20:41:13.207Z,-3.13
2018-02-27T20:43:41.528Z,-3.12
2018-02-27T20:46:09.933Z,-2.99
2018-02-27T20:48:38.296Z,-3.06
2018-02-27T20:51:06.634Z,-3.04
2018-02-27T20:53:35.009Z,-2.96
2018-02-27T20:56:03.357Z,-3.36
2018-02-27T20:58:32.429Z,-3.51
2018-02-27T21:01:00.786Z,-3.33
2018-02-27T21:03:29.161Z,-3.47
2018-02-27T21:05:57.521Z,-3.50
2018-02-27T21:08:25.999Z,-3.35
2018-02-27T21:10:54.345Z,-3.63
2018-02-27T21:13:22.680Z,-3.69
2018-02-27T21:15:51.033Z,-3.79
2018-02-27T21:18:19.377Z,-3.73
2018-02-27T21:20:47.731Z,-3.91
2018-02-27T21:23:16.078Z,-3.73
2018-02-27T21:25:44.392Z,-3.86
2018-02-27T21:28:12.733Z,-3.52
2018-02-27T21:30:41.294Z,-3.55
2018-02-27T21:33:10.381Z,-3.72
2018-02-27T21:35:39.508Z,-3.60
2018-02-27T21:38:07.900Z,-3.37
2018-02-27T21:40:36.258Z,-3.50
2018-02-27T21:43:04.585Z,-3.46
2018-02-27T21:45:32.958Z,-3.51
2018-02-27T21:48:01.349Z,-3.55
2018-02-27T21:50:29.626Z,-3.39
2018-02-27T21:52:58.058Z,-3.73
2018-02-27T21:55:26.386Z,-3.66
2018-02-27T21:57:55.480Z,-3.83
2018-02-27T22:00:23.845Z,-3.91
2018-02-27T22:02:52.193Z,-3.94
2018-02-27T22:05:20.554Z,-4.19
2018-02-27T22:07:49.216Z,-4.32
2018-02-27T22:10:18.308Z,-4.33
2018-02-27T22:12:46.649Z,-4.30
2018-02-27T22:15:15.152Z,-4.20
2018-02-27T22:17:43.487Z,-4.24
2018-02-27T22:20:11.785Z,-4.06
2018-02-27T22:22:40.146Z,-4.33
2018-02-27T22:25:08.479Z,-4.49
2018-02-27T22:27:36.803Z,-4.35
2018-02-27T22:30:05.177Z,-4.49
2018-02-27T22:32:33.500Z,-4.59
2018-02-27T22:35:01.846Z,-4.50
2018-02-27T22:37:30.474Z,-4.63
2018-02-27T22:39:58.829Z,-4.54
2018-02-27T22:42:27.165Z,-4.32
2018-02-27T22:44:55.497Z,-4.58
2018-02-27T22:47:23.801Z,-4.73
2018-02-27T22:49:52.883Z,-4.66
2018-02-27T22:52:21.260Z,-4.70
2018-02-27T22:54:49.588Z,-4.96
2018-02-27T22:57:17.901Z,-5.18
2018-02-27T22:59:46.515Z,-5.16
2018-02-27T23:02:15.586Z,-4.97
2018-02-27T23:04:43.905Z,-4.99
2018-02-27T23:07:12.284Z,-5.10
2018-02-27T23:09:40.585Z,-5.04
2018-02-27T23:12:08.913Z,-5.10
2018-02-27T23:14:37.240Z,-4.87
2018-02-27T23:17:05.723Z,-4.86
2018-02-27T23:19:34.031Z,-5.16
2018-02-27T23:22:02.661Z,-5.11
2018-02-27T23:24:44.148Z,-4.94
2018-02-27T23:27:14.564Z,-4.97
2018-02-27T23:29:44.854Z,-4.86
2018-02-27T23:32:14.235Z,-4.81
2018-02-27T23:34:48.462Z,-4.81
2018-02-27T23:37:16.792Z,-4.83
2018-02-27T23:39:45.870Z,-4.79
2018-02-27T23:42:14.439Z,-5.13
2018-02-27T23:44:42.779Z,-5.01
2018-02-27T23:47:11.078Z,-4.76
2018-02-27T23:49:39.394Z,-4.81
2018-02-27T23:52:08.466Z,-4.84
2018-02-27T23:54:36.753Z,-5.11
2018-02-27T23:57:05.101Z,-5.06
2018-02-27T23:59:33.448Z,-4.93
